createdAt,value
2018-09-28T00:00:58.701Z,929.76
2018-09-28T00:01:58.659Z,929.77
2018-09-28T00:02:58.646Z,929.81
2018-09-28T00:03:58.586Z,929.85
2018-09-28T00:04:58.523Z,929.83
2018-09-28T00:05:58.495Z,929.88
2018-09-28T00:06:58.425Z,929.86
2018-09-28T00:07:58.377Z,929.88
2018-09-28T00:08:58.356Z,929.90
2018-09-28T00:09:58.303Z,929.84
2018-09-28T00:10:58.255Z,929.84
2018-09-28T00:11:58.217Z,929.88
2018-09-28T00:12:58.177Z,929.86
2018-09-28T00:13:58.120Z,929.86
2018-09-28T00:14:58.090Z,929.86
2018-09-28T00:15:58.034Z,929.81
2018-09-28T00:16:57.990Z,929.84
2018-09-28T00:17:57.929Z,929.80
2018-09-28T00:18:57.889Z,929.78
2018-09-28T00:19:57.833Z,929.77
2018-09-28T00:20:57.793Z,929.78
2018-09-28T00:21:57.740Z,929.81
2018-09-28T00:22:57.709Z,929.79
2018-09-28T00:23:57.658Z,929.83
2018-09-28T00:24:57.617Z,929.85
2018-09-28T00:25:57.638Z,929.87
2018-09-28T00:26:57.527Z,929.88
2018-09-28T00:27:57.477Z,929.89
2018-09-28T00:28:57.422Z,929.90
2018-09-28T00:29:57.385Z,929.88
2018-09-28T00:30:57.347Z,929.89
2018-09-28T00:31:57.307Z,929.86
2018-09-28T00:32:57.255Z,929.83
2018-09-28T00:33:57.208Z,929.89
2018-09-28T00:34:57.170Z,929.84
2018-09-28T00:35:57.156Z,929.83
2018-09-28T00:36:57.075Z,929.84
2018-09-28T00:37:57.029Z,929.86
2018-09-28T00:38:56.985Z,929.91
2018-09-28T00:39:56.948Z,929.82
2018-09-28T00:40:56.899Z,929.83
2018-09-28T00:41:56.848Z,929.86
2018-09-28T00:42:56.794Z,929.89
2018-09-28T00:43:56.783Z,929.93
2018-09-28T00:44:56.714Z,929.93
2018-09-28T00:45:56.665Z,929.95
2018-09-28T00:46:56.632Z,929.94
2018-09-28T00:47:56.566Z,929.99
2018-09-28T00:48:56.520Z,930.03
2018-09-28T00:49:56.487Z,930.01
2018-09-28T00:50:56.441Z,930.01
2018-09-28T00:51:56.386Z,930.03
2018-09-28T00:52:56.358Z,930.06
2018-09-28T00:53:56.316Z,930.07
2018-09-28T00:54:56.260Z,930.03
2018-09-28T00:55:56.220Z,930.09
2018-09-28T00:56:56.173Z,930.11
2018-09-28T00:57:56.141Z,930.20
2018-09-28T00:58:56.088Z,930.17
2018-09-28T00:59:56.023Z,930.23
2018-09-28T01:00:56.002Z,930.22
2018-09-28T01:01:55.962Z,930.19
2018-09-28T01:02:55.905Z,930.23
2018-09-28T01:03:55.914Z,930.20
2018-09-28T01:04:55.797Z,930.22
2018-09-28T01:05:55.757Z,930.25
2018-09-28T01:06:55.707Z,930.23
2018-09-28T01:07:55.681Z,930.22
2018-09-28T01:08:55.628Z,930.15
2018-09-28T01:09:55.621Z,930.17
2018-09-28T01:10:55.542Z,930.22
2018-09-28T01:11:55.499Z,930.15
2018-09-28T01:12:55.439Z,930.17
2018-09-28T01:13:55.391Z,930.15
2018-09-28T01:14:55.344Z,930.14
2018-09-28T01:15:55.316Z,930.14
2018-09-28T01:16:55.262Z,930.11
2018-09-28T01:17:55.227Z,930.16
2018-09-28T01:18:55.189Z,930.12
2018-09-28T01:19:55.132Z,930.16
2018-09-28T01:20:55.099Z,930.13
2018-09-28T01:21:55.058Z,930.14
2018-09-28T01:22:54.995Z,930.13
2018-09-28T01:23:54.951Z,930.11
2018-09-28T01:24:54.903Z,930.12
2018-09-28T01:25:54.871Z,930.09
2018-09-28T01:26:54.820Z,930.10
2018-09-28T01:27:54.777Z,930.08
2018-09-28T01:28:54.744Z,930.06
2018-09-28T01:29:54.680Z,930.06
2018-09-28T01:30:54.636Z,930.05
2018-09-28T01:31:54.590Z,930.06
2018-09-28T01:32:54.548Z,930.06
2018-09-28T01:33:54.481Z,930.01
2018-09-28T01:34:54.454Z,929.98
2018-09-28T01:35:54.396Z,929.96
2018-09-28T01:36:54.364Z,929.97
2018-09-28T01:37:54.307Z,929.99
2018-09-28T01:38:54.271Z,930.01
2018-09-28T01:39:54.228Z,930.03
2018-09-28T01:40:54.188Z,930.02
2018-09-28T01:41:54.132Z,930.05
2018-09-28T01:42:54.097Z,929.99
2018-09-28T01:43:54.046Z,930.00
2018-09-28T01:44:53.991Z,929.99
2018-09-28T01:45:53.963Z,930.03
2018-09-28T01:46:53.909Z,930.08
2018-09-28T01:47:53.880Z,930.06
2018-09-28T01:48:53.828Z,930.00
2018-09-28T01:49:53.777Z,930.03
2018-09-28T01:50:53.731Z,930.02
2018-09-28T01:51:53.691Z,930.01
2018-09-28T01:52:53.654Z,930.01
2018-09-28T01:53:53.613Z,929.98
2018-09-28T01:54:53.546Z,929.91
2018-09-28T01:55:53.501Z,929.93
2018-09-28T01:56:53.464Z,929.96
2018-09-28T01:57:53.444Z,929.95
2018-09-28T01:58:53.382Z,929.91
2018-09-28T01:59:53.349Z,929.92
2018-09-28T02:00:53.268Z,929.89
2018-09-28T02:01:53.234Z,929.88
2018-09-28T02:02:53.189Z,929.85
2018-09-28T02:03:53.135Z,929.85
2018-09-28T02:04:53.107Z,929.82
2018-09-28T02:05:53.049Z,929.81
2018-09-28T02:06:52.998Z,929.82
2018-09-28T02:07:52.957Z,929.83
2018-09-28T02:08:52.918Z,929.86
2018-09-28T02:09:52.860Z,929.85
2018-09-28T02:10:52.856Z,929.82
2018-09-28T02:11:52.789Z,929.83
2018-09-28T02:12:52.738Z,929.82
2018-09-28T02:13:52.684Z,929.82
2018-09-28T02:14:52.656Z,929.76
2018-09-28T02:15:52.645Z,929.77
2018-09-28T02:16:52.550Z,929.80
2018-09-28T02:17:52.499Z,929.78
2018-09-28T02:18:52.463Z,929.78
2018-09-28T02:19:52.405Z,929.79
2018-09-28T02:20:52.363Z,929.76
2018-09-28T02:21:52.335Z,929.75
2018-09-28T02:22:52.295Z,929.72
2018-09-28T02:23:52.222Z,929.72
2018-09-28T02:24:52.192Z,929.74
2018-09-28T02:25:52.175Z,929.72
2018-09-28T02:26:52.109Z,929.73
2018-09-28T02:27:52.067Z,929.74
2018-09-28T02:28:52.007Z,929.78
2018-09-28T02:29:51.964Z,929.77
2018-09-28T02:30:51.928Z,929.80
2018-09-28T02:31:51.886Z,929.84
2018-09-28T02:32:51.834Z,929.83
2018-09-28T02:33:51.797Z,929.83
2018-09-28T02:34:51.728Z,929.86
2018-09-28T02:35:51.723Z,929.89
2018-09-28T02:36:51.653Z,929.89
2018-09-28T02:37:51.593Z,929.91
2018-09-28T02:38:51.580Z,929.88
2018-09-28T02:39:51.525Z,929.91
2018-09-28T02:40:51.465Z,929.90
2018-09-28T02:41:51.413Z,929.95
2018-09-28T02:42:51.385Z,929.90
2018-09-28T02:43:51.329Z,929.93
2018-09-28T02:44:51.282Z,929.94
2018-09-28T02:45:51.243Z,929.96
2018-09-28T02:46:51.210Z,929.98
2018-09-28T02:47:51.159Z,929.93
2018-09-28T02:48:51.103Z,929.97
2018-09-28T02:49:51.057Z,929.95
2018-09-28T02:50:51.023Z,929.95
2018-09-28T02:51:50.965Z,929.91
2018-09-28T02:52:50.925Z,929.92
2018-09-28T02:53:50.887Z,929.93
2018-09-28T02:54:50.831Z,929.89
2018-09-28T02:55:50.805Z,929.90
2018-09-28T02:56:50.830Z,929.91
2018-09-28T02:57:50.703Z,929.86
2018-09-28T02:58:50.654Z,929.86
2018-09-28T02:59:50.607Z,929.89
2018-09-28T03:00:50.565Z,929.88
2018-09-28T03:01:50.536Z,929.87
2018-09-28T03:02:50.480Z,929.90
2018-09-28T03:03:50.439Z,929.88
2018-09-28T03:04:50.372Z,929.86
2018-09-28T03:05:50.355Z,929.85
2018-09-28T03:06:50.292Z,929.89
2018-09-28T03:07:50.248Z,929.83
2018-09-28T03:08:50.210Z,929.89
2018-09-28T03:09:50.154Z,929.85
2018-09-28T03:10:50.118Z,929.86
2018-09-28T03:11:50.053Z,929.88
2018-09-28T03:12:50.042Z,929.90
2018-09-28T03:13:49.984Z,929.89
2018-09-28T03:14:49.946Z,929.88
2018-09-28T03:15:49.885Z,929.86
2018-09-28T03:16:49.838Z,929.87
2018-09-28T03:17:49.795Z,929.84
2018-09-28T03:18:49.753Z,929.80
2018-09-28T03:19:49.728Z,929.82
2018-09-28T03:20:49.689Z,929.76
2018-09-28T03:21:49.604Z,929.77
2018-09-28T03:22:49.565Z,929.74
2018-09-28T03:23:49.525Z,929.73
2018-09-28T03:24:49.480Z,929.74
2018-09-28T03:25:49.463Z,929.70
2018-09-28T03:26:49.386Z,929.69
2018-09-28T03:27:49.334Z,929.66
2018-09-28T03:28:49.298Z,929.62
2018-09-28T03:29:49.261Z,929.64
2018-09-28T03:30:49.201Z,929.64
2018-09-28T03:31:49.150Z,929.69
2018-09-28T03:32:49.115Z,929.69
2018-09-28T03:33:49.056Z,929.65
2018-09-28T03:34:49.013Z,929.70
2018-09-28T03:35:48.966Z,929.67
2018-09-28T03:36:48.924Z,929.65
2018-09-28T03:37:48.886Z,929.65
2018-09-28T03:38:48.857Z,929.61
2018-09-28T03:39:48.788Z,929.63
2018-09-28T03:40:48.757Z,929.61
2018-09-28T03:41:48.709Z,929.60
2018-09-28T03:42:48.645Z,929.63
2018-09-28T03:43:48.613Z,929.60
2018-09-28T03:44:48.577Z,929.57
2018-09-28T03:45:48.539Z,929.60
2018-09-28T03:46:48.494Z,929.56
2018-09-28T03:47:48.425Z,929.59
2018-09-28T03:48:48.373Z,929.60
2018-09-28T03:49:48.347Z,929.62
2018-09-28T03:50:48.310Z,929.60
2018-09-28T03:51:48.257Z,929.53
2018-09-28T03:52:48.193Z,929.51
2018-09-28T03:53:48.147Z,929.47
2018-09-28T03:54:48.121Z,929.46
2018-09-28T03:55:48.092Z,929.44
2018-09-28T03:56:48.020Z,929.43
2018-09-28T03:57:47.977Z,929.44
2018-09-28T03:58:47.938Z,929.44
2018-09-28T03:59:47.875Z,929.39
2018-09-28T04:00:47.901Z,929.36
2018-09-28T04:01:47.796Z,929.31
2018-09-28T04:02:47.788Z,929.33
2018-09-28T04:03:47.697Z,929.27
2018-09-28T04:04:47.660Z,929.32
2018-09-28T04:05:47.618Z,929.35
2018-09-28T04:06:47.578Z,929.33
2018-09-28T04:07:47.523Z,929.33
2018-09-28T04:08:47.481Z,929.38
2018-09-28T04:09:47.433Z,929.34
2018-09-28T04:10:47.384Z,929.33
2018-09-28T04:11:47.330Z,929.31
2018-09-28T04:12:47.295Z,929.37
2018-09-28T04:13:47.252Z,929.30
2018-09-28T04:14:47.204Z,929.31
2018-09-28T04:15:47.167Z,929.28
2018-09-28T04:16:47.118Z,929.31
2018-09-28T04:17:47.057Z,929.35
2018-09-28T04:18:47.017Z,929.32
2018-09-28T04:19:46.975Z,929.34
2018-09-28T04:20:46.936Z,929.37
2018-09-28T04:21:46.950Z,929.36
2018-09-28T04:22:46.841Z,929.34
2018-09-28T04:23:46.788Z,929.37
2018-09-28T04:24:46.737Z,929.37
2018-09-28T04:25:46.695Z,929.37
2018-09-28T04:26:46.667Z,929.35
2018-09-28T04:27:46.608Z,929.35
2018-09-28T04:28:46.569Z,929.31
2018-09-28T04:29:46.528Z,929.32
2018-09-28T04:30:46.511Z,929.33
2018-09-28T04:31:46.450Z,929.30
2018-09-28T04:32:46.420Z,929.27
2018-09-28T04:33:46.334Z,929.33
2018-09-28T04:34:46.318Z,929.33
2018-09-28T04:35:46.253Z,929.31
2018-09-28T04:36:46.185Z,929.31
2018-09-28T04:37:46.208Z,929.32
2018-09-28T04:38:46.110Z,929.31
2018-09-28T04:39:46.055Z,929.36
2018-09-28T04:40:46.059Z,929.31
2018-09-28T04:41:45.980Z,929.35
2018-09-28T04:42:45.930Z,929.33
2018-09-28T04:43:45.882Z,929.31
2018-09-28T04:44:45.845Z,929.33
2018-09-28T04:45:45.834Z,929.31
2018-09-28T04:46:45.742Z,929.31
2018-09-28T04:47:45.696Z,929.36
2018-09-28T04:48:45.652Z,929.34
2018-09-28T04:49:45.627Z,929.34
2018-09-28T04:50:45.590Z,929.32
2018-09-28T04:51:45.530Z,929.30
2018-09-28T04:52:45.468Z,929.29
2018-09-28T04:53:45.436Z,929.26
2018-09-28T04:54:45.387Z,929.27
2018-09-28T04:55:45.335Z,929.29
2018-09-28T04:56:45.290Z,929.26
2018-09-28T04:57:45.248Z,929.27
2018-09-28T04:58:45.209Z,929.31
2018-09-28T04:59:45.137Z,929.26
2018-09-28T05:00:45.125Z,929.26
2018-09-28T05:01:45.063Z,929.25
2018-09-28T05:02:45.035Z,929.26
2018-09-28T05:03:44.971Z,929.30
2018-09-28T05:04:44.934Z,929.26
2018-09-28T05:05:44.868Z,929.29
2018-09-28T05:06:44.840Z,929.27
2018-09-28T05:07:44.794Z,929.31
2018-09-28T05:08:44.735Z,929.27
2018-09-28T05:09:44.695Z,929.27
2018-09-28T05:10:44.657Z,929.29
2018-09-28T05:11:44.605Z,929.26
2018-09-28T05:12:44.579Z,929.27
2018-09-28T05:13:44.519Z,929.23
2018-09-28T05:14:44.485Z,929.25
2018-09-28T05:15:44.418Z,929.27
2018-09-28T05:16:44.366Z,929.27
2018-09-28T05:17:44.317Z,929.29
2018-09-28T05:18:44.288Z,929.35
2018-09-28T05:19:44.237Z,929.29
2018-09-28T05:20:44.202Z,929.43
2018-09-28T05:21:44.159Z,929.35
2018-09-28T05:22:44.132Z,929.37
2018-09-28T05:23:44.049Z,929.38
2018-09-28T05:24:44.028Z,929.41
2018-09-28T05:25:43.983Z,929.44
2018-09-28T05:26:43.921Z,929.45
2018-09-28T05:27:43.879Z,929.48
2018-09-28T05:28:43.823Z,929.48
2018-09-28T05:29:43.788Z,929.48
2018-09-28T05:30:44.968Z,929.49
2018-09-28T05:31:43.895Z,929.47
2018-09-28T05:32:43.781Z,929.36
2018-09-28T05:33:43.611Z,929.33
2018-09-28T05:34:43.552Z,929.28
2018-09-28T05:35:43.512Z,929.28
2018-09-28T05:36:43.457Z,929.27
2018-09-28T05:37:43.412Z,929.29
2018-09-28T05:38:43.383Z,929.31
2018-09-28T05:39:43.337Z,929.28
2018-09-28T05:40:43.276Z,929.26
2018-09-28T05:41:43.222Z,929.31
2018-09-28T05:42:43.180Z,929.32
2018-09-28T05:43:43.232Z,929.35
2018-09-28T05:44:43.115Z,929.31
2018-09-28T05:45:43.060Z,929.31
2018-09-28T05:46:43.014Z,929.35
2018-09-28T05:47:42.970Z,929.33
2018-09-28T05:48:42.916Z,929.33
2018-09-28T05:49:42.886Z,929.32
2018-09-28T05:50:42.829Z,929.34
2018-09-28T05:51:42.765Z,929.29
2018-09-28T05:52:42.739Z,929.29
2018-09-28T05:53:42.713Z,929.33
2018-09-28T05:54:42.644Z,929.29
2018-09-28T05:55:42.583Z,929.32
2018-09-28T05:56:42.536Z,929.24
2018-09-28T05:57:42.500Z,929.26
2018-09-28T05:58:42.546Z,929.24
2018-09-28T05:59:42.438Z,929.22
2018-09-28T06:00:42.366Z,929.21
2018-09-28T06:01:42.313Z,929.25
2018-09-28T06:02:42.298Z,929.27
2018-09-28T06:03:42.249Z,929.24
2018-09-28T06:04:42.192Z,929.23
2018-09-28T06:05:42.130Z,929.21
2018-09-28T06:06:42.076Z,929.17
2018-09-28T06:07:42.068Z,929.20
2018-09-28T06:08:41.992Z,929.10
2018-09-28T06:09:41.952Z,929.10
2018-09-28T06:10:41.897Z,929.09
2018-09-28T06:11:41.867Z,929.09
2018-09-28T06:12:41.818Z,929.15
2018-09-28T06:13:41.762Z,929.11
2018-09-28T06:14:41.714Z,929.06
2018-09-28T06:15:41.682Z,929.09
2018-09-28T06:16:41.629Z,929.09
2018-09-28T06:17:41.584Z,929.02
2018-09-28T06:18:41.545Z,929.02
2018-09-28T06:19:41.493Z,929.03
2018-09-28T06:20:41.454Z,929.03
2018-09-28T06:21:41.398Z,929.00
2018-09-28T06:22:41.342Z,928.99
2018-09-28T06:23:41.312Z,929.01
2018-09-28T06:24:41.277Z,928.98
2018-09-28T06:25:41.223Z,929.02
2018-09-28T06:26:41.202Z,929.03
2018-09-28T06:27:41.118Z,929.03
2018-09-28T06:28:41.079Z,929.06
2018-09-28T06:29:41.084Z,929.05
2018-09-28T06:30:40.990Z,929.01
2018-09-28T06:31:40.958Z,929.02
2018-09-28T06:32:40.886Z,929.05
2018-09-28T06:33:40.849Z,928.99
2018-09-28T06:34:40.813Z,929.06
2018-09-28T06:35:40.757Z,929.05
2018-09-28T06:36:40.724Z,929.03
2018-09-28T06:37:40.681Z,929.07
2018-09-28T06:38:40.603Z,929.04
2018-09-28T06:39:40.573Z,929.02
2018-09-28T06:40:40.552Z,929.03
2018-09-28T06:41:40.534Z,929.04
2018-09-28T06:42:40.425Z,929.06
2018-09-28T06:43:40.400Z,929.10
2018-09-28T06:44:40.372Z,929.13
2018-09-28T06:45:40.287Z,929.11
2018-09-28T06:46:40.240Z,929.16
2018-09-28T06:47:40.228Z,929.14
2018-09-28T06:48:40.149Z,929.17
2018-09-28T06:49:40.112Z,929.17
2018-09-28T06:50:40.081Z,929.19
2018-09-28T06:51:40.011Z,929.18
2018-09-28T06:52:39.976Z,929.19
2018-09-28T06:53:39.951Z,929.24
2018-09-28T06:54:39.902Z,929.23
2018-09-28T06:55:39.848Z,929.28
2018-09-28T06:56:39.790Z,929.28
2018-09-28T06:57:39.750Z,929.32
2018-09-28T06:58:39.713Z,929.33
2018-09-28T06:59:39.702Z,929.35
2018-09-28T07:00:39.613Z,929.33
2018-09-28T07:01:39.573Z,929.31
2018-09-28T07:02:39.523Z,929.34
2018-09-28T07:03:39.460Z,929.29
2018-09-28T07:04:39.413Z,929.28
2018-09-28T07:05:39.399Z,929.33
2018-09-28T07:06:39.324Z,929.33
2018-09-28T07:07:39.315Z,929.35
2018-09-28T07:08:39.241Z,929.37
2018-09-28T07:09:39.221Z,929.36
2018-09-28T07:10:39.164Z,929.33
2018-09-28T07:11:39.112Z,929.31
2018-09-28T07:12:39.042Z,929.30
2018-09-28T07:13:39.026Z,929.24
2018-09-28T07:14:38.986Z,929.29
2018-09-28T07:15:38.921Z,929.28
2018-09-28T07:16:38.931Z,929.30
2018-09-28T07:17:38.859Z,929.32
2018-09-28T07:18:38.776Z,929.33
2018-09-28T07:19:38.734Z,929.30
2018-09-28T07:20:38.715Z,929.30
2018-09-28T07:21:38.643Z,929.38
2018-09-28T07:22:38.597Z,929.37
2018-09-28T07:23:38.548Z,929.38
2018-09-28T07:24:38.556Z,929.43
2018-09-28T07:25:38.458Z,929.39
2018-09-28T07:26:38.445Z,929.42
2018-09-28T07:27:38.361Z,929.48
2018-09-28T07:28:38.316Z,929.47
2018-09-28T07:29:38.265Z,929.51
2018-09-28T07:30:38.237Z,929.47
2018-09-28T07:31:38.205Z,929.48
2018-09-28T07:32:38.144Z,929.48
2018-09-28T07:33:38.098Z,929.50
2018-09-28T07:34:38.039Z,929.52
2018-09-28T07:35:38.029Z,929.56
2018-09-28T07:36:38.095Z,929.61
2018-09-28T07:37:37.896Z,929.62
2018-09-28T07:38:37.856Z,929.61
2018-09-28T07:39:37.810Z,929.60
2018-09-28T07:40:37.765Z,929.60
2018-09-28T07:41:37.727Z,929.60
2018-09-28T07:42:37.668Z,929.61
2018-09-28T07:43:37.628Z,929.56
2018-09-28T07:44:37.603Z,929.56
2018-09-28T07:45:37.549Z,929.59
2018-09-28T07:46:37.478Z,929.63
2018-09-28T07:47:37.436Z,929.65
2018-09-28T07:48:37.398Z,929.67
2018-09-28T07:49:37.358Z,929.70
2018-09-28T07:50:37.308Z,929.66
2018-09-28T07:51:37.276Z,929.66
2018-09-28T07:52:37.212Z,929.67
2018-09-28T07:53:37.171Z,929.70
2018-09-28T07:54:37.131Z,929.70
2018-09-28T07:55:37.088Z,929.69
2018-09-28T07:56:37.030Z,929.72
2018-09-28T07:57:36.989Z,929.74
2018-09-28T07:58:36.963Z,929.70
2018-09-28T07:59:36.924Z,929.71
2018-09-28T08:00:36.840Z,929.73
2018-09-28T08:01:36.801Z,929.73
2018-09-28T08:02:36.770Z,929.77
2018-09-28T08:03:36.716Z,929.77
2018-09-28T08:04:36.668Z,929.81
2018-09-28T08:05:36.628Z,929.80
2018-09-28T08:06:36.592Z,929.83
2018-09-28T08:07:36.532Z,929.84
2018-09-28T08:08:36.504Z,929.86
2018-09-28T08:09:36.437Z,929.92
2018-09-28T08:10:36.387Z,929.93
2018-09-28T08:11:36.349Z,929.95
2018-09-28T08:12:36.319Z,930.00
2018-09-28T08:13:36.256Z,929.99
2018-09-28T08:14:36.195Z,930.03
2018-09-28T08:15:36.152Z,930.05
2018-09-28T08:16:36.134Z,930.06
2018-09-28T08:17:36.080Z,930.05
2018-09-28T08:18:36.048Z,930.06
2018-09-28T08:19:35.996Z,930.12
2018-09-28T08:20:35.917Z,930.14
2018-09-28T08:21:35.893Z,930.16
2018-09-28T08:22:35.840Z,930.17
2018-09-28T08:23:35.800Z,930.14
2018-09-28T08:24:35.783Z,930.16
2018-09-28T08:25:35.744Z,930.16
2018-09-28T08:26:35.670Z,930.16
2018-09-28T08:27:35.631Z,930.19
2018-09-28T08:28:35.556Z,930.16
2018-09-28T08:29:35.520Z,930.11
2018-09-28T08:30:35.530Z,930.14
2018-09-28T08:31:35.450Z,930.09
2018-09-28T08:32:35.380Z,930.10
2018-09-28T08:33:35.340Z,930.15
2018-09-28T08:34:35.293Z,930.14
2018-09-28T08:35:35.241Z,930.17
2018-09-28T08:36:35.301Z,930.17
2018-09-28T08:37:35.205Z,930.22
2018-09-28T08:38:35.104Z,930.25
2018-09-28T08:39:35.067Z,930.24
2018-09-28T08:40:35.036Z,930.27
2018-09-28T08:41:34.979Z,930.28
2018-09-28T08:42:34.916Z,930.29
2018-09-28T08:43:34.920Z,930.28
2018-09-28T08:44:34.823Z,930.26
2018-09-28T08:45:34.768Z,930.22
2018-09-28T08:46:34.734Z,930.26
2018-09-28T08:47:34.695Z,930.21
2018-09-28T08:48:34.649Z,930.33
2018-09-28T08:49:34.598Z,930.28
2018-09-28T08:50:34.547Z,930.31
2018-09-28T08:51:34.508Z,930.32
2018-09-28T08:52:34.457Z,930.40
2018-09-28T08:53:34.420Z,930.34
2018-09-28T08:54:34.362Z,930.35
2018-09-28T08:55:34.335Z,930.33
2018-09-28T08:56:34.293Z,930.39
2018-09-28T08:57:34.255Z,930.33
2018-09-28T08:58:34.188Z,930.38
2018-09-28T08:59:34.145Z,930.39
2018-09-28T09:00:34.116Z,930.40
2018-09-28T09:01:34.045Z,930.43
2018-09-28T09:02:33.986Z,930.47
2018-09-28T09:03:33.970Z,930.49
2018-09-28T09:04:33.907Z,930.57
2018-09-28T09:05:33.845Z,930.52
2018-09-28T09:06:33.815Z,930.56
2018-09-28T09:07:33.776Z,930.57
2018-09-28T09:08:33.718Z,930.60
2018-09-28T09:09:33.693Z,930.58
2018-09-28T09:10:33.636Z,930.60
2018-09-28T09:11:33.580Z,930.65
2018-09-28T09:12:33.538Z,930.69
2018-09-28T09:13:33.487Z,930.69
2018-09-28T09:14:33.459Z,930.67
2018-09-28T09:15:33.391Z,930.77
2018-09-28T09:16:33.361Z,930.80
2018-09-28T09:17:33.297Z,930.70
2018-09-28T09:18:33.267Z,930.76
2018-09-28T09:19:33.223Z,930.75
2018-09-28T09:20:33.175Z,930.73
2018-09-28T09:21:33.124Z,930.76
2018-09-28T09:22:33.085Z,930.68
2018-09-28T09:23:33.031Z,930.68
2018-09-28T09:24:32.987Z,930.64
2018-09-28T09:25:32.943Z,930.60
2018-09-28T09:26:32.900Z,930.62
2018-09-28T09:27:32.860Z,930.59
2018-09-28T09:28:32.806Z,930.56
2018-09-28T09:29:32.761Z,930.64
2018-09-28T09:30:32.712Z,930.64
2018-09-28T09:31:32.671Z,930.64
2018-09-28T09:32:32.636Z,930.63
2018-09-28T09:33:32.583Z,930.69
2018-09-28T09:34:32.533Z,930.72
2018-09-28T09:35:32.479Z,930.74
2018-09-28T09:36:32.478Z,930.73
2018-09-28T09:37:32.396Z,930.79
2018-09-28T09:38:32.343Z,930.80
2018-09-28T09:39:32.322Z,930.83
2018-09-28T09:40:32.261Z,930.82
2018-09-28T09:41:32.230Z,930.86
2018-09-28T09:42:32.185Z,930.83
2018-09-28T09:43:32.111Z,930.86
2018-09-28T09:44:32.075Z,930.83
2018-09-28T09:45:32.019Z,930.83
2018-09-28T09:46:31.981Z,930.88
2018-09-28T09:47:31.922Z,930.87
2018-09-28T09:48:31.924Z,930.90
2018-09-28T09:49:31.842Z,930.94
2018-09-28T09:50:31.808Z,930.96
2018-09-28T09:51:31.755Z,930.91
2018-09-28T09:52:31.730Z,930.89
2018-09-28T09:53:31.655Z,930.87
2018-09-28T09:54:31.614Z,930.86
2018-09-28T09:55:31.548Z,930.89
2018-09-28T09:56:31.529Z,930.86
2018-09-28T09:57:31.466Z,930.83
2018-09-28T09:58:31.428Z,930.79
2018-09-28T09:59:31.380Z,930.79
2018-09-28T10:00:31.330Z,930.80
2018-09-28T10:01:31.273Z,930.87
2018-09-28T10:02:31.238Z,930.93
2018-09-28T10:03:31.205Z,931.02
2018-09-28T10:04:31.151Z,931.09
2018-09-28T10:05:31.103Z,931.11
2018-09-28T10:06:31.055Z,931.21
2018-09-28T10:07:31.022Z,931.21
2018-09-28T10:08:31.005Z,931.23
2018-09-28T10:09:30.958Z,931.30
2018-09-28T10:10:30.876Z,931.32
2018-09-28T10:11:30.831Z,931.37
2018-09-28T10:12:30.942Z,931.40
2018-09-28T10:13:30.740Z,931.41
2018-09-28T10:14:30.687Z,931.46
2018-09-28T10:15:30.639Z,931.49
2018-09-28T10:16:30.589Z,931.49
2018-09-28T10:17:30.539Z,931.49
2018-09-28T10:18:30.521Z,931.51
2018-09-28T10:19:30.478Z,931.45
2018-09-28T10:20:30.421Z,931.42
2018-09-28T10:21:30.390Z,931.42
2018-09-28T10:22:30.336Z,931.41
2018-09-28T10:23:30.296Z,931.48
2018-09-28T10:24:30.224Z,931.45
2018-09-28T10:25:30.182Z,931.44
2018-09-28T10:26:30.131Z,931.36
2018-09-28T10:27:30.352Z,931.39
2018-09-28T10:28:30.058Z,931.43
2018-09-28T10:29:30.003Z,931.42
2018-09-28T10:30:29.978Z,931.42
2018-09-28T10:31:29.910Z,931.40
2018-09-28T10:32:29.854Z,931.40
2018-09-28T10:33:29.824Z,931.41
2018-09-28T10:34:29.774Z,931.48
2018-09-28T10:35:29.710Z,931.50
2018-09-28T10:36:29.675Z,931.46
2018-09-28T10:37:29.628Z,931.49
2018-09-28T10:38:29.612Z,931.48
2018-09-28T10:39:29.573Z,931.50
2018-09-28T10:40:29.661Z,931.49
2018-09-28T10:41:29.450Z,931.54
2018-09-28T10:42:29.401Z,931.58
2018-09-28T10:43:29.355Z,931.59
2018-09-28T10:44:29.318Z,931.63
2018-09-28T10:45:29.383Z,931.64
2018-09-28T10:46:29.234Z,931.70
2018-09-28T10:47:29.179Z,931.72
2018-09-28T10:48:29.151Z,931.73
2018-09-28T10:49:29.080Z,931.76
2018-09-28T10:50:29.052Z,931.79
2018-09-28T10:51:29.076Z,931.84
2018-09-28T10:52:29.001Z,931.89
2018-09-28T10:53:28.898Z,931.84
2018-09-28T10:54:28.861Z,931.88
2018-09-28T10:55:28.797Z,931.81
2018-09-28T10:56:28.768Z,931.84
2018-09-28T10:57:28.742Z,931.79
2018-09-28T10:58:28.767Z,931.84
2018-09-28T10:59:28.626Z,931.83
2018-09-28T11:00:28.683Z,931.87
2018-09-28T11:01:28.539Z,931.90
2018-09-28T11:02:28.477Z,931.94
2018-09-28T11:03:28.481Z,932.00
2018-09-28T11:04:28.455Z,932.06
2018-09-28T11:05:28.351Z,932.09
2018-09-28T11:06:28.325Z,932.12
2018-09-28T11:07:28.258Z,932.15
2018-09-28T11:08:28.263Z,932.17
2018-09-28T11:09:28.152Z,932.19
2018-09-28T11:10:28.210Z,932.17
2018-09-28T11:11:28.063Z,932.17
2018-09-28T11:12:28.037Z,932.17
2018-09-28T11:13:28.022Z,932.19
2018-09-28T11:14:27.926Z,932.18
2018-09-28T11:15:28.004Z,932.19
2018-09-28T11:16:27.846Z,932.17
2018-09-28T11:17:27.794Z,932.21
2018-09-28T11:18:27.761Z,932.26
2018-09-28T11:19:27.726Z,932.28
2018-09-28T11:20:27.668Z,932.29
2018-09-28T11:21:27.622Z,932.38
2018-09-28T11:22:27.563Z,932.40
2018-09-28T11:23:27.544Z,932.39
2018-09-28T11:24:27.488Z,932.41
2018-09-28T11:25:27.435Z,932.43
2018-09-28T11:26:27.531Z,932.39
2018-09-28T11:27:27.359Z,932.39
2018-09-28T11:28:27.299Z,932.43
2018-09-28T11:29:27.250Z,932.39
2018-09-28T11:30:27.207Z,932.39
2018-09-28T11:31:27.165Z,932.38
2018-09-28T11:32:27.113Z,932.40
2018-09-28T11:33:27.092Z,932.41
2018-09-28T11:34:27.026Z,932.41
2018-09-28T11:35:26.968Z,932.42
2018-09-28T11:36:26.941Z,932.42
2018-09-28T11:37:26.875Z,932.40
2018-09-28T11:38:26.862Z,932.40
2018-09-28T11:39:26.881Z,932.41
2018-09-28T11:40:26.771Z,932.45
2018-09-28T11:41:26.735Z,932.47
2018-09-28T11:42:26.660Z,932.41
2018-09-28T11:43:26.637Z,932.40
2018-09-28T11:44:26.573Z,932.38
2018-09-28T11:45:26.617Z,932.32
2018-09-28T11:46:26.471Z,932.29
2018-09-28T11:47:26.435Z,932.29
2018-09-28T11:48:26.379Z,932.27
2018-09-28T11:49:26.345Z,932.25
2018-09-28T11:50:26.293Z,932.23
2018-09-28T11:51:26.315Z,932.24
2018-09-28T11:52:26.198Z,932.26
2018-09-28T11:53:26.165Z,932.27
2018-09-28T11:54:26.121Z,932.32
2018-09-28T11:55:26.053Z,932.32
2018-09-28T11:56:26.008Z,932.31
2018-09-28T11:57:26.060Z,932.33
2018-09-28T11:58:25.931Z,932.32
2018-09-28T11:59:25.866Z,932.34
2018-09-28T12:00:25.826Z,932.35
2018-09-28T12:01:25.791Z,932.34
2018-09-28T12:02:25.733Z,932.30
2018-09-28T12:03:25.731Z,932.33
2018-09-28T12:04:25.652Z,932.34
2018-09-28T12:05:25.615Z,932.34
2018-09-28T12:06:25.717Z,932.36
2018-09-28T12:07:25.530Z,932.41
2018-09-28T12:08:25.470Z,932.38
2018-09-28T12:09:25.465Z,932.40
2018-09-28T12:10:25.387Z,932.41
2018-09-28T12:11:25.333Z,932.43
2018-09-28T12:12:25.386Z,932.42
2018-09-28T12:13:25.312Z,932.46
2018-09-28T12:14:25.208Z,932.38
2018-09-28T12:15:25.208Z,932.43
2018-09-28T12:16:25.099Z,932.47
2018-09-28T12:17:25.078Z,932.45
2018-09-28T12:18:25.031Z,932.46
2018-09-28T12:19:24.956Z,932.46
2018-09-28T12:20:24.926Z,932.48
2018-09-28T12:21:24.990Z,932.46
2018-09-28T12:22:24.850Z,932.47
2018-09-28T12:23:24.779Z,932.48
2018-09-28T12:24:24.787Z,932.48
2018-09-28T12:25:24.700Z,932.51
2018-09-28T12:26:24.647Z,932.51
2018-09-28T12:27:24.716Z,932.50
2018-09-28T12:28:24.555Z,932.50